Time;durP1;ratioP1;P1;durP2;ratioP2;P2;SDS_P1;SDS_P2;PMS_P1;PMS_P2;Temp;Humidity;BMP_temperature;BMP_pressure;BME280_temperature;BME280_humidity;BME280_pressure;Samples;Min_cycle;Max_cycle;Signal;HPM_P1;HPM_P2
2022/07/21 00:01:37;;;;;;;10.93;5.90;;;22.10;99.90;;;;;;5051094;28;20484;-75
2022/07/21 00:04:09;;;;;;;7.83;5.47;;;22.10;99.90;;;;;;5048206;28;21048;-74
2022/07/21 00:06:36;;;;;;;10.60;5.80;;;22.10;99.90;;;;;;5061357;28;20446;-75
2022/07/21 00:09:04;;;;;;;7.83;4.90;;;22.10;99.90;;;;;;5054972;28;20477;-75
2022/07/21 00:11:35;;;;;;;8.43;6.40;;;22.10;99.90;;;;;;5041487;28;20472;-76
2022/07/21 00:14:03;;;;;;;7.47;5.33;;;22.20;99.90;;;;;;5048851;28;20468;-76
2022/07/21 00:16:31;;;;;;;12.40;5.63;;;22.10;99.90;;;;;;5044387;28;20559;-75
2022/07/21 00:18:59;;;;;;;7.60;4.90;;;22.10;99.90;;;;;;5043098;28;20872;-74
2022/07/21 00:21:26;;;;;;;7.90;5.10;;;22.10;99.90;;;;;;5050767;28;20528;-75
2022/07/21 00:23:53;;;;;;;11.43;6.60;;;22.20;99.90;;;;;;5051338;28;20968;-75
2022/07/21 00:26:20;;;;;;;12.60;7.90;;;22.10;99.90;;;;;;5051847;28;20564;-75
2022/07/21 00:28:47;;;;;;;13.50;8.93;;;22.10;99.90;;;;;;5050060;28;20462;-75
2022/07/21 00:31:16;;;;;;;12.20;8.07;;;21.90;99.90;;;;;;5052104;28;20482;-76
2022/07/21 00:33:43;;;;;;;15.17;10.10;;;21.90;99.90;;;;;;5052758;28;21066;-76
2022/07/21 00:36:10;;;;;;;9.10;7.73;;;21.80;99.90;;;;;;5049055;28;20558;-75
2022/07/21 00:38:37;;;;;;;12.90;8.37;;;21.70;99.90;;;;;;5046711;28;20488;-75
2022/07/21 00:41:04;;;;;;;13.03;8.67;;;21.70;99.90;;;;;;5047968;28;20815;-75
2022/07/21 00:43:37;;;;;;;18.23;8.43;;;21.60;99.90;;;;;;5044010;28;20505;-76
2022/07/21 00:46:04;;;;;;;10.57;8.13;;;21.60;99.90;;;;;;5049873;28;20916;-74
2022/07/21 00:48:33;;;;;;;10.90;7.73;;;21.70;99.90;;;;;;5043423;28;20449;-74
2022/07/21 00:51:00;;;;;;;12.60;9.17;;;21.70;99.90;;;;;;5047824;28;20913;-75
2022/07/21 00:53:27;;;;;;;12.97;8.17;;;21.70;99.90;;;;;;5043331;28;20912;-75
2022/07/21 00:55:54;;;;;;;9.50;7.77;;;21.70;99.90;;;;;;5045689;28;20446;-75
2022/07/21 00:58:23;;;;;;;13.03;8.87;;;21.80;99.90;;;;;;5045519;28;20526;-74
2022/07/21 01:00:50;;;;;;;12.80;7.97;;;21.80;99.90;;;;;;5038611;28;20442;-74
2022/07/21 01:03:17;;;;;;;11.03;7.23;;;21.90;99.90;;;;;;5041040;28;20498;-74
2022/07/21 01:05:45;;;;;;;7.73;6.93;;;22.00;99.90;;;;;;5040600;28;20462;-74
2022/07/21 01:08:12;;;;;;;10.40;8.47;;;22.10;99.90;;;;;;5047070;28;20936;-75
2022/07/21 01:10:40;;;;;;;10.77;8.90;;;22.10;99.90;;;;;;5039132;28;20454;-74
2022/07/21 01:13:09;;;;;;;13.53;8.40;;;22.10;99.90;;;;;;5043528;28;20496;-75
2022/07/21 01:15:36;;;;;;;10.37;7.47;;;22.10;99.90;;;;;;5036442;28;20450;-75
2022/07/21 01:18:03;;;;;;;13.30;9.20;;;22.10;99.90;;;;;;5037933;28;20442;-75
2022/07/21 01:20:34;;;;;;;13.40;9.10;;;22.20;99.90;;;;;;5040205;28;20434;-75
2022/07/21 01:23:03;;;;;;;8.40;7.37;;;22.20;99.90;;;;;;5047476;28;20466;-75
2022/07/21 01:25:30;;;;;;;14.43;8.00;;;22.20;99.90;;;;;;5049495;28;20511;-75
2022/07/21 01:27:57;;;;;;;14.70;10.00;;;22.20;99.90;;;;;;5052338;28;20860;-76
2022/07/21 01:30:24;;;;;;;18.10;8.47;;;22.30;99.90;;;;;;5053506;28;20508;-75
2022/07/21 01:32:53;;;;;;;8.90;6.37;;;22.30;99.90;;;;;;5050059;28;20523;-75
2022/07/21 01:35:21;;;;;;;13.17;9.67;;;22.30;99.90;;;;;;5037891;28;20489;-75
2022/07/21 01:37:49;;;;;;;10.60;8.20;;;22.30;99.90;;;;;;5041783;28;20917;-75
2022/07/21 01:43:03;;;;;;;12.70;8.40;;;22.30;99.90;;;;;;5049018;28;20524;-75
2022/07/21 01:45:30;;;;;;;11.17;7.60;;;22.30;99.90;;;;;;5054914;28;20823;-75
2022/07/21 01:47:57;;;;;;;12.10;7.67;;;22.30;99.90;;;;;;5052326;28;20512;-75
2022/07/21 01:50:27;;;;;;;10.47;7.70;;;22.30;99.90;;;;;;5049626;28;20481;-75
2022/07/21 01:52:55;;;;;;;9.93;7.47;;;22.30;99.90;;;;;;5050728;28;20944;-75
2022/07/21 01:55:25;;;;;;;10.30;7.30;;;22.30;99.90;;;;;;5055293;28;20453;-75
2022/07/21 01:57:52;;;;;;;8.03;7.20;;;22.30;99.90;;;;;;5055009;28;20442;-75
2022/07/21 02:00:19;;;;;;;11.13;7.53;;;22.30;99.90;;;;;;5047328;28;20875;-75
2022/07/21 02:02:46;;;;;;;11.50;6.87;;;22.30;99.90;;;;;;5053722;28;20470;-74
2022/07/21 02:05:13;;;;;;;9.37;6.57;;;22.30;99.90;;;;;;5054367;28;20474;-75
2022/07/21 02:07:40;;;;;;;11.17;5.97;;;22.20;99.90;;;;;;5052292;28;20477;-74
2022/07/21 02:10:08;;;;;;;10.40;6.20;;;22.20;99.90;;;;;;5050157;28;20955;-74
2022/07/21 02:12:36;;;;;;;6.47;4.77;;;22.10;99.90;;;;;;5048397;28;20520;-75
2022/07/21 02:15:04;;;;;;;6.80;5.27;;;22.10;99.90;;;;;;5049838;28;20475;-75
2022/07/21 02:17:31;;;;;;;8.80;5.50;;;22.10;99.90;;;;;;5052411;28;20457;-74
2022/07/21 02:19:58;;;;;;;6.47;4.53;;;22.00;99.90;;;;;;5053082;28;20500;-74
2022/07/21 02:22:25;;;;;;;7.23;4.13;;;22.00;99.90;;;;;;5050873;28;20565;-74
2022/07/21 02:24:52;;;;;;;4.43;3.80;;;21.90;99.90;;;;;;5050407;28;20476;-75
2022/07/21 02:27:19;;;;;;;7.20;4.17;;;21.90;99.90;;;;;;5055998;28;20450;-74
2022/07/21 02:29:47;;;;;;;5.37;4.00;;;21.80;99.90;;;;;;5055140;28;20442;-74
2022/07/21 02:32:14;;;;;;;7.93;3.97;;;21.80;99.90;;;;;;5058349;28;20473;-75
2022/07/21 02:34:41;;;;;;;4.90;3.90;;;21.80;99.90;;;;;;5068177;28;20497;-75
2022/07/21 02:37:16;;;;;;;4.80;4.17;;;21.70;99.90;;;;;;5051046;28;20863;-75
2022/07/21 02:39:43;;;;;;;6.63;4.47;;;21.70;99.90;;;;;;5047476;28;20970;-75
2022/07/21 02:42:10;;;;;;;7.40;6.07;;;21.60;99.90;;;;;;5049481;28;20521;-75
2022/07/21 02:44:38;;;;;;;6.37;4.27;;;21.60;99.90;;;;;;5043588;28;20494;-75
2022/07/21 02:47:06;;;;;;;9.00;4.10;;;21.60;99.90;;;;;;5048084;28;20450;-76
2022/07/21 02:49:33;;;;;;;7.73;4.37;;;21.60;99.90;;;;;;5047213;28;20924;-76
2022/07/21 02:52:00;;;;;;;4.90;4.17;;;21.50;99.90;;;;;;5048050;28;20471;-74
2022/07/21 02:54:27;;;;;;;5.50;3.67;;;21.50;99.90;;;;;;5051857;28;20485;-73
2022/07/21 02:56:54;;;;;;;8.83;4.33;;;21.50;99.90;;;;;;5043369;28;20447;-75
2022/07/21 02:59:21;;;;;;;6.03;4.00;;;21.50;99.90;;;;;;5050808;28;20502;-75
2022/07/21 03:01:48;;;;;;;8.17;4.30;;;21.50;99.90;;;;;;5044276;28;20929;-75
2022/07/21 03:04:16;;;;;;;9.37;5.53;;;21.50;99.90;;;;;;5046496;28;20516;-75
2022/07/21 03:06:44;;;;;;;6.23;5.53;;;21.50;99.90;;;;;;5046508;28;20500;-75
2022/07/21 03:09:11;;;;;;;4.53;4.13;;;21.60;99.90;;;;;;5048704;28;20452;-75
2022/07/21 03:11:38;;;;;;;6.13;4.03;;;21.50;99.90;;;;;;5046713;28;20489;-75
2022/07/21 03:14:05;;;;;;;8.07;5.90;;;21.50;99.90;;;;;;5046594;28;20518;-75
2022/07/21 03:16:32;;;;;;;6.80;5.47;;;21.40;99.90;;;;;;5043315;28;20446;-75
2022/07/21 03:18:59;;;;;;;10.53;5.93;;;21.40;99.90;;;;;;5047866;28;20496;-75
2022/07/21 03:21:27;;;;;;;8.83;6.53;;;21.40;99.90;;;;;;5039822;28;20960;-76
2022/07/21 03:23:54;;;;;;;9.73;5.70;;;21.30;99.90;;;;;;5045368;28;20457;-75
2022/07/21 03:26:21;;;;;;;9.77;7.60;;;21.20;99.90;;;;;;5040932;28;20460;-75
2022/07/21 03:28:48;;;;;;;9.00;5.23;;;21.00;99.90;;;;;;5040948;28;20457;-75
2022/07/21 03:31:15;;;;;;;6.30;5.67;;;21.00;99.90;;;;;;5049870;28;20506;-75
2022/07/21 03:33:42;;;;;;;9.93;6.27;;;20.90;99.90;;;;;;5042649;28;21050;-76
2022/07/21 03:36:09;;;;;;;8.97;6.37;;;20.80;99.90;;;;;;5042696;28;20521;-75
2022/07/21 03:38:37;;;;;;;9.60;5.87;;;20.80;99.90;;;;;;5046783;28;20814;-76
2022/07/21 03:41:04;;;;;;;10.83;5.53;;;20.80;99.90;;;;;;5041353;28;20481;-76
2022/07/21 03:43:31;;;;;;;12.17;7.90;;;20.80;99.90;;;;;;5048794;28;20492;-75
2022/07/21 03:45:58;;;;;;;8.77;6.40;;;20.90;99.90;;;;;;5050441;28;20440;-76
2022/07/21 03:48:25;;;;;;;8.40;6.63;;;20.90;99.90;;;;;;5045317;28;20453;-75
2022/07/21 03:50:52;;;;;;;10.13;7.40;;;20.90;99.90;;;;;;5043693;28;20492;-74
2022/07/21 03:53:19;;;;;;;12.77;7.00;;;20.80;99.90;;;;;;5044776;28;20579;-74
2022/07/21 03:55:47;;;;;;;11.77;7.33;;;20.80;99.90;;;;;;5038590;28;20477;-75
2022/07/21 03:58:14;;;;;;;7.30;6.60;;;20.90;99.90;;;;;;5045144;28;20782;-75
2022/07/21 04:00:43;;;;;;;13.70;7.53;;;20.90;99.90;;;;;;5045932;28;20445;-74
2022/07/21 04:03:12;;;;;;;8.00;6.80;;;21.00;99.90;;;;;;5039053;28;20557;-75
2022/07/21 04:05:42;;;;;;;7.40;6.70;;;21.00;99.90;;;;;;5047402;28;20979;-74
2022/07/21 04:08:10;;;;;;;8.03;7.20;;;21.00;99.90;;;;;;5046265;28;20864;-75
2022/07/21 04:10:39;;;;;;;10.07;7.83;;;21.00;99.90;;;;;;5035604;28;20468;-76
2022/07/21 04:13:10;;;;;;;12.07;6.80;;;21.10;99.90;;;;;;5045244;28;20489;-78
2022/07/21 04:15:38;;;;;;;11.43;7.07;;;21.10;99.90;;;;;;5046950;28;20449;-76
2022/07/21 04:18:06;;;;;;;10.70;7.77;;;21.10;99.90;;;;;;5048584;28;20473;-75
2022/07/21 04:20:33;;;;;;;10.80;7.53;;;21.10;99.90;;;;;;5048701;28;20480;-75
2022/07/21 04:23:00;;;;;;;12.67;7.40;;;21.00;99.90;;;;;;5045626;28;20466;-74
2022/07/21 04:25:29;;;;;;;11.10;9.20;;;21.00;99.90;;;;;;5049874;28;20803;-77
2022/07/21 04:27:57;;;;;;;9.37;7.87;;;21.00;99.90;;;;;;5050397;28;20793;-76
2022/07/21 04:30:26;;;;;;;12.90;8.90;;;21.00;99.90;;;;;;5037654;28;20493;-77
2022/07/21 04:32:53;;;;;;;9.73;8.63;;;21.00;99.90;;;;;;5042281;28;20465;-76
2022/07/21 04:35:20;;;;;;;13.20;9.27;;;20.90;99.90;;;;;;5051730;28;20580;-76
2022/07/21 04:37:47;;;;;;;10.43;8.70;;;20.90;99.90;;;;;;5048190;28;20548;-76
2022/07/21 04:40:15;;;;;;;13.20;9.73;;;20.90;99.90;;;;;;5040543;28;20486;-74
2022/07/21 04:42:43;;;;;;;13.33;10.03;;;20.80;99.90;;;;;;5048511;28;20547;-74
2022/07/21 04:45:12;;;;;;;9.47;8.50;;;20.80;99.90;;;;;;5047086;28;20494;-74
2022/07/21 04:47:48;;;;;;;11.20;7.23;;;20.80;99.90;;;;;;5052526;28;20539;-75
2022/07/21 04:50:18;;;;;;;11.70;9.00;;;20.80;99.90;;;;;;5042173;28;20458;-75
2022/07/21 04:52:45;;;;;;;12.60;9.10;;;20.90;99.90;;;;;;5050627;28;20840;-74
2022/07/21 04:55:14;;;;;;;12.90;10.20;;;20.90;99.90;;;;;;5036876;28;20565;-74
2022/07/21 04:57:43;;;;;;;10.73;8.90;;;20.90;99.90;;;;;;5037021;28;20452;-75
2022/07/21 05:00:14;;;;;;;11.77;9.63;;;20.90;99.90;;;;;;5040357;28;20445;-75
2022/07/21 05:02:41;;;;;;;10.53;7.80;;;20.90;99.90;;;;;;5042113;28;20449;-75
2022/07/21 05:05:10;;;;;;;11.47;9.77;;;20.90;99.90;;;;;;5041497;28;20442;-75
2022/07/21 05:07:38;;;;;;;11.90;9.80;;;20.90;99.90;;;;;;5043723;28;20452;-76
2022/07/21 05:10:07;;;;;;;14.23;10.93;;;20.90;99.90;;;;;;5045074;28;20540;-75
2022/07/21 05:12:34;;;;;;;18.77;14.93;;;20.80;99.90;;;;;;5042082;28;20486;-75
2022/07/21 05:15:01;;;;;;;12.00;10.67;;;20.80;99.90;;;;;;5051240;28;20524;-74
2022/07/21 05:17:28;;;;;;;14.20;11.00;;;20.90;99.90;;;;;;5052215;28;20442;-75
2022/07/21 05:19:55;;;;;;;12.97;11.27;;;21.00;99.90;;;;;;5065774;28;20464;-76
2022/07/21 05:22:25;;;;;;;13.93;10.93;;;21.00;99.90;;;;;;5061942;28;20477;-75
2022/07/21 05:24:53;;;;;;;15.30;12.50;;;21.10;99.90;;;;;;5047404;28;20866;-75
2022/07/21 05:27:20;;;;;;;15.00;10.43;;;20.90;99.90;;;;;;5038799;28;20509;-76
2022/07/21 05:29:47;;;;;;;12.63;9.60;;;20.80;99.90;;;;;;5052720;28;20432;-75
2022/07/21 05:32:14;;;;;;;10.53;9.43;;;20.80;99.90;;;;;;5049350;28;20438;-76
2022/07/21 05:34:41;;;;;;;14.80;13.37;;;20.80;99.90;;;;;;5049338;28;20492;-75
2022/07/21 05:37:08;;;;;;;16.27;11.30;;;20.80;99.90;;;;;;5049485;28;20457;-75
2022/07/21 05:39:37;;;;;;;13.03;9.33;;;20.90;99.90;;;;;;5038907;28;20481;-76
2022/07/21 05:42:04;;;;;;;9.53;8.53;;;20.70;99.90;;;;;;5049116;28;20901;-76
2022/07/21 05:44:31;;;;;;;11.77;9.67;;;20.60;99.90;;;;;;5046003;28;20545;-76
2022/07/21 05:46:58;;;;;;;11.47;10.20;;;20.60;99.90;;;;;;5046755;28;20557;-76
2022/07/21 05:49:24;;;;;;;11.60;9.00;;;20.70;99.90;;;;;;5047989;28;20541;-75
2022/07/21 05:51:52;;;;;;;13.83;10.23;;;20.70;99.90;;;;;;5048430;28;20620;-75
2022/07/21 05:54:19;;;;;;;11.33;10.03;;;20.80;99.90;;;;;;5041798;28;20489;-76
2022/07/21 05:56:48;;;;;;;11.80;9.63;;;20.90;99.90;;;;;;5051494;28;20453;-75
2022/07/21 05:59:15;;;;;;;10.73;8.30;;;20.90;99.90;;;;;;5049026;28;20452;-75
2022/07/21 06:01:42;;;;;;;14.53;10.03;;;20.90;99.90;;;;;;5042525;28;21001;-75
2022/07/21 06:04:09;;;;;;;14.70;10.00;;;20.90;99.90;;;;;;5044572;28;20978;-74
2022/07/21 06:06:36;;;;;;;16.60;10.40;;;20.90;99.90;;;;;;5039468;28;20529;-76
2022/07/21 06:09:03;;;;;;;11.50;9.87;;;21.00;99.90;;;;;;5046832;28;20450;-76
2022/07/21 06:11:30;;;;;;;16.60;12.50;;;20.90;99.90;;;;;;5037513;28;20590;-76
2022/07/21 06:13:58;;;;;;;11.83;10.60;;;20.90;99.90;;;;;;5044964;28;21003;-75
2022/07/21 06:16:25;;;;;;;12.70;10.00;;;20.80;99.90;;;;;;5041225;28;20460;-75
2022/07/21 06:18:53;;;;;;;11.27;10.10;;;20.70;99.90;;;;;;5049936;28;20544;-76
2022/07/21 06:21:20;;;;;;;14.43;8.93;;;20.70;99.90;;;;;;5047959;28;20445;-75
2022/07/21 06:23:48;;;;;;;10.70;8.87;;;20.60;99.90;;;;;;5040025;28;20858;-74
2022/07/21 06:26:15;;;;;;;11.73;8.97;;;20.60;99.90;;;;;;5038995;28;20458;-78
2022/07/21 06:28:42;;;;;;;10.73;8.80;;;20.40;99.90;;;;;;5049461;28;20489;-76
2022/07/21 06:31:10;;;;;;;11.67;9.60;;;20.30;99.90;;;;;;5045740;28;20449;-76
2022/07/21 06:33:37;;;;;;;12.93;10.87;;;20.30;99.90;;;;;;5042975;28;20901;-76
2022/07/21 06:36:05;;;;;;;11.87;8.80;;;20.40;99.90;;;;;;5044931;28;20438;-76
2022/07/21 06:38:32;;;;;;;12.20;10.63;;;20.40;99.90;;;;;;5039697;28;20473;-75
2022/07/21 06:40:59;;;;;;;11.37;10.17;;;20.40;99.90;;;;;;5049242;28;20447;-76
2022/07/21 06:43:26;;;;;;;12.23;10.93;;;20.30;99.90;;;;;;5050779;28;20472;-76
2022/07/21 06:45:54;;;;;;;11.07;9.47;;;20.30;99.90;;;;;;5045927;28;20469;-76
2022/07/21 06:48:22;;;;;;;15.63;9.90;;;20.20;99.90;;;;;;5043745;28;20542;-77
2022/07/21 06:50:50;;;;;;;17.47;10.37;;;20.20;99.90;;;;;;5045635;28;20773;-75
2022/07/21 06:53:17;;;;;;;14.40;10.43;;;20.20;99.90;;;;;;5044484;28;20458;-77
2022/07/21 06:55:46;;;;;;;11.40;10.13;;;20.10;99.90;;;;;;5043032;28;20521;-77
2022/07/21 06:58:15;;;;;;;14.77;12.20;;;20.10;99.90;;;;;;5039130;28;20541;-77
2022/07/21 07:00:44;;;;;;;18.70;10.90;;;20.10;99.90;;;;;;5052310;28;20452;-76
2022/07/21 07:03:11;;;;;;;15.13;13.53;;;20.10;99.90;;;;;;5045503;28;20509;-76
2022/07/21 07:05:41;;;;;;;16.40;13.80;;;20.10;99.90;;;;;;5052854;28;20454;-76
2022/07/21 07:08:08;;;;;;;17.57;14.73;;;20.00;99.90;;;;;;5045750;28;20504;-76
2022/07/21 07:10:35;;;;;;;18.27;16.30;;;20.10;99.90;;;;;;5047214;28;20520;-77
2022/07/21 07:13:02;;;;;;;20.93;14.03;;;20.00;99.90;;;;;;5044891;28;20550;-77
2022/07/21 07:15:29;;;;;;;17.00;14.33;;;20.00;99.90;;;;;;5047692;28;20479;-77
2022/07/21 07:17:57;;;;;;;16.00;14.50;;;20.00;99.90;;;;;;5049249;28;20471;-76
2022/07/21 07:20:24;;;;;;;22.00;15.07;;;19.90;99.90;;;;;;5051158;28;20450;-77
2022/07/21 07:22:52;;;;;;;20.90;14.13;;;20.00;99.90;;;;;;5048393;28;20506;-77
2022/07/21 07:25:19;;;;;;;13.60;10.67;;;20.10;99.90;;;;;;5046612;28;20467;-77
2022/07/21 07:27:48;;;;;;;13.17;9.83;;;20.10;99.90;;;;;;5044892;28;20447;-76
2022/07/21 07:30:15;;;;;;;14.80;11.00;;;20.10;99.90;;;;;;5039369;28;20487;-76
2022/07/21 07:32:43;;;;;;;12.67;10.27;;;20.20;99.90;;;;;;5047012;28;20889;-76
2022/07/21 07:35:11;;;;;;;10.90;8.23;;;20.30;99.90;;;;;;5039782;28;20483;-76
2022/07/21 07:37:39;;;;;;;14.60;10.40;;;20.40;99.90;;;;;;5041355;28;20447;-76
2022/07/21 07:40:11;;;;;;;11.87;10.13;;;20.40;99.90;;;;;;5043635;28;20527;-77
2022/07/21 07:42:39;;;;;;;10.23;8.63;;;20.50;99.90;;;;;;5039569;28;20436;-77
2022/07/21 07:45:08;;;;;;;9.27;8.47;;;20.60;99.90;;;;;;5050392;28;20468;-77
2022/07/21 07:47:35;;;;;;;14.00;10.07;;;20.70;99.90;;;;;;5052280;28;20444;-76
2022/07/21 07:50:02;;;;;;;10.93;9.70;;;20.80;99.90;;;;;;5055060;28;20500;-76
2022/07/21 07:52:29;;;;;;;11.17;8.50;;;21.00;99.90;;;;;;5053331;28;20471;-76
2022/07/21 07:54:57;;;;;;;9.00;8.13;;;21.10;99.90;;;;;;5047209;28;20494;-76
2022/07/21 07:57:27;;;;;;;10.93;9.73;;;21.20;99.90;;;;;;5050989;28;20538;-76
2022/07/21 07:59:54;;;;;;;10.67;9.50;;;21.20;99.90;;;;;;5066056;28;20475;-76
2022/07/21 08:02:36;;;;;;;8.70;7.80;;;21.20;99.90;;;;;;5071979;28;20436;-76
2022/07/21 08:05:03;;;;;;;8.53;7.50;;;21.30;99.90;;;;;;5055014;28;20468;-76
2022/07/21 08:07:30;;;;;;;8.90;8.00;;;21.30;99.90;;;;;;5057171;28;20472;-75
2022/07/21 08:09:57;;;;;;;8.53;7.80;;;21.10;99.90;;;;;;5058420;28;20489;-75
2022/07/21 08:12:25;;;;;;;8.70;7.90;;;20.90;99.90;;;;;;5050838;28;20526;-75
2022/07/21 08:14:53;;;;;;;7.40;6.80;;;20.90;99.90;;;;;;5055519;28;20480;-76
2022/07/21 08:17:20;;;;;;;10.10;9.10;;;20.90;99.90;;;;;;5051134;28;20564;-75
2022/07/21 08:19:47;;;;;;;7.30;6.60;;;20.90;99.90;;;;;;5044907;28;20516;-75
2022/07/21 08:22:14;;;;;;;7.80;7.00;;;21.00;99.90;;;;;;5046620;28;20525;-75
2022/07/21 08:24:44;;;;;;;9.00;8.20;;;21.30;99.90;;;;;;5048947;28;20460;-76
2022/07/21 08:27:11;;;;;;;9.43;8.40;;;21.40;99.90;;;;;;5041107;28;20530;-76
2022/07/21 08:29:38;;;;;;;7.80;7.10;;;21.60;99.90;;;;;;5040736;28;20536;-76
2022/07/21 08:32:07;;;;;;;6.80;6.10;;;21.80;99.90;;;;;;5048914;28;20449;-75
2022/07/21 08:34:34;;;;;;;9.50;8.57;;;22.10;99.90;;;;;;5051655;28;20581;-75
2022/07/21 08:37:01;;;;;;;7.10;6.40;;;22.10;99.90;;;;;;5043268;28;20628;-76
2022/07/21 08:39:28;;;;;;;6.73;6.10;;;22.10;99.90;;;;;;5047333;28;20824;-77
2022/07/21 08:41:55;;;;;;;5.20;4.80;;;22.10;99.90;;;;;;5048546;28;20464;-78
2022/07/21 08:44:22;;;;;;;5.50;5.00;;;22.00;99.90;;;;;;5044898;28;20474;-74
2022/07/21 08:46:51;;;;;;;4.97;4.57;;;22.20;99.90;;;;;;5047540;28;20483;-76
2022/07/21 08:49:22;;;;;;;6.00;5.43;;;22.20;99.90;;;;;;5052136;28;20495;-76
2022/07/21 08:51:52;;;;;;;6.50;4.63;;;22.40;99.90;;;;;;5048574;28;20455;-75
2022/07/21 08:54:20;;;;;;;5.70;5.23;;;22.80;99.90;;;;;;5051808;28;20485;-76
2022/07/21 08:56:47;;;;;;;6.73;5.37;;;23.20;99.90;;;;;;5051264;28;20497;-76
2022/07/21 08:59:14;;;;;;;5.13;4.73;;;23.50;99.90;;;;;;5049311;28;20437;-76
2022/07/21 09:01:41;;;;;;;5.87;5.27;;;23.80;99.90;;;;;;5053212;28;20533;-75
2022/07/21 09:04:25;;;;;;;6.20;5.60;;;24.20;99.90;;;;;;5055439;28;20553;-75
2022/07/21 09:06:54;;;;;;;5.53;5.10;;;24.50;99.90;;;;;;5049035;28;20520;-76
2022/07/21 09:09:23;;;;;;;7.37;6.77;;;24.40;99.90;;;;;;5047942;28;20527;-76
2022/07/21 09:11:50;;;;;;;5.90;5.40;;;25.00;99.90;;;;;;5039673;28;20493;-76
2022/07/21 09:14:21;;;;;;;5.97;5.47;;;25.40;99.90;;;;;;5045240;28;20505;-74
2022/07/21 09:16:49;;;;;;;6.30;4.80;;;25.20;99.90;;;;;;5047966;28;20540;-76
2022/07/21 09:19:19;;;;;;;5.50;4.73;;;24.50;99.90;;;;;;5052908;28;20454;-75
2022/07/21 09:21:49;;;;;;;5.20;4.77;;;24.20;99.90;;;;;;5043126;28;20814;-75
2022/07/21 09:24:18;;;;;;;4.50;4.10;;;24.00;99.90;;;;;;5051446;28;20476;-74
2022/07/21 09:27:05;;;;;;;6.17;5.33;;;24.80;99.90;;;;;;5044205;28;20534;-74
2022/07/21 09:29:37;;;;;;;4.70;4.30;;;25.80;99.90;;;;;;5051216;28;20821;-74
2022/07/21 09:32:21;;;;;;;5.63;4.97;;;25.90;99.90;;;;;;5044827;28;20537;-75
2022/07/21 09:34:51;;;;;;;4.50;4.10;;;25.30;99.90;;;;;;5049100;28;20491;-74
2022/07/21 09:37:23;;;;;;;4.23;3.83;;;24.60;99.90;;;;;;5046747;28;20581;-75
2022/07/21 09:39:52;;;;;;;4.17;3.77;;;24.20;99.90;;;;;;5044983;28;20462;-75
2022/07/21 09:42:24;;;;;;;4.57;4.17;;;24.20;99.90;;;;;;5046482;28;20476;-77
2022/07/21 09:44:53;;;;;;;6.20;4.40;;;24.90;99.90;;;;;;5045188;28;20453;-77
2022/07/21 09:47:24;;;;;;;4.57;4.17;;;25.30;99.90;;;;;;5047209;28;20533;-75
2022/07/21 09:49:51;;;;;;;4.93;4.43;;;26.00;99.90;;;;;;5042895;28;20525;-76
2022/07/21 09:52:29;;;;;;;5.33;4.40;;;25.60;99.90;;;;;;5042393;28;20823;-77
2022/07/21 09:54:58;;;;;;;5.83;5.33;;;25.40;99.90;;;;;;5051695;28;20509;-76
2022/07/21 09:57:25;;;;;;;5.50;5.00;;;25.40;99.90;;;;;;5048058;28;20439;-74
2022/07/21 09:59:52;;;;;;;6.10;5.60;;;25.70;99.90;;;;;;5051361;28;20457;-76
2022/07/21 10:02:22;;;;;;;5.40;5.00;;;25.60;99.90;;;;;;5049264;28;20521;-76
2022/07/21 10:04:58;;;;;;;5.53;4.93;;;25.30;99.90;;;;;;5044089;28;20462;-76
2022/07/21 10:07:25;;;;;;;5.10;4.60;;;25.50;99.90;;;;;;5048539;28;20477;-76
2022/07/21 10:09:54;;;;;;;4.57;4.17;;;25.40;99.90;;;;;;5053289;28;20978;-76
2022/07/21 10:12:22;;;;;;;4.40;4.03;;;25.60;99.90;;;;;;5051837;28;20481;-76
2022/07/21 10:14:49;;;;;;;6.83;5.57;;;26.10;99.90;;;;;;5046015;28;20486;-76
2022/07/21 10:17:18;;;;;;;5.27;4.77;;;26.10;99.90;;;;;;5044529;28;20482;-77
2022/07/21 10:19:57;;;;;;;5.40;4.90;;;26.10;99.90;;;;;;5047974;28;21881;-77
2022/07/21 10:22:34;;;;;;;4.80;4.33;;;26.40;99.90;;;;;;5051064;28;20446;-78
2022/07/21 10:25:03;;;;;;;5.27;4.77;;;26.70;99.90;;;;;;5033640;28;20525;-78
2022/07/21 10:27:30;;;;;;;5.13;4.70;;;26.40;99.90;;;;;;5039144;28;20460;-78
2022/07/21 10:30:00;;;;;;;5.07;4.57;;;26.40;99.90;;;;;;5047153;28;20975;-78
2022/07/21 10:32:32;;;;;;;5.60;5.10;;;26.80;99.90;;;;;;5048833;28;21024;-77
2022/07/21 10:35:02;;;;;;;6.23;5.63;;;27.10;99.90;;;;;;5053027;28;20556;-80
2022/07/21 10:37:48;;;;;;;6.10;5.60;;;27.20;99.90;;;;;;5053753;28;20496;-77
2022/07/21 10:40:41;;;;;;;6.07;5.47;;;27.90;99.90;;;;;;5044791;28;20889;-77
2022/07/21 10:43:39;;;;;;;7.20;6.50;;;28.20;99.90;;;;;;5070431;28;20508;-76
2022/07/21 10:46:36;;;;;;;6.70;6.10;;;28.70;99.90;;;;;;5066493;28;20927;-78
2022/07/21 10:49:05;;;;;;;7.17;6.47;;;28.90;98.60;;;;;;5045356;28;20449;-77
2022/07/21 10:51:37;;;;;;;7.33;6.60;;;28.60;99.00;;;;;;5053411;28;20522;-76
2022/07/21 10:54:21;;;;;;;8.20;7.20;;;28.30;99.80;;;;;;5046437;28;20871;-77
2022/07/21 10:57:10;;;;;;;9.77;8.97;;;28.10;98.80;;;;;;5050813;28;20485;-77
2022/07/21 11:00:10;;;;;;;8.80;8.10;;;27.80;99.90;;;;;;5047824;28;20474;-77
2022/07/21 11:02:38;;;;;;;10.40;9.33;;;27.00;99.90;;;;;;5046563;28;20949;-78
2022/07/21 11:05:07;;;;;;;9.40;8.53;;;26.60;99.90;;;;;;5046898;28;20452;-77
2022/07/21 11:08:07;;;;;;;10.10;9.20;;;26.40;99.90;;;;;;5049453;28;20442;-77
2022/07/21 11:10:36;;;;;;;11.97;10.83;;;26.20;99.90;;;;;;5042686;28;20450;-77
2022/07/21 11:13:05;;;;;;;14.03;12.33;;;26.30;99.90;;;;;;5047254;28;20473;-77
2022/07/21 11:15:48;;;;;;;13.53;12.13;;;26.20;99.90;;;;;;5044409;28;20866;-77
2022/07/21 11:18:18;;;;;;;13.50;12.13;;;26.30;99.90;;;;;;5034328;28;20467;-77
2022/07/21 11:20:45;;;;;;;14.87;13.47;;;26.40;99.90;;;;;;5043096;28;20530;-79
2022/07/21 11:23:12;;;;;;;13.33;12.13;;;26.50;99.90;;;;;;5041706;28;20561;-75
2022/07/21 11:25:39;;;;;;;13.30;12.00;;;26.60;99.90;;;;;;5041456;28;20529;-78
2022/07/21 11:28:18;;;;;;;14.20;12.90;;;27.10;99.90;;;;;;5048958;28;20533;-77
2022/07/21 11:30:45;;;;;;;15.77;14.27;;;27.40;99.90;;;;;;5039284;28;20449;-77
2022/07/21 11:33:23;;;;;;;13.97;12.77;;;27.60;98.70;;;;;;5047287;28;20490;-77
2022/07/21 11:35:50;;;;;;;15.90;14.40;;;27.70;99.00;;;;;;5042332;28;20573;-77
2022/07/21 11:38:17;;;;;;;15.60;14.00;;;27.60;97.60;;;;;;5048223;28;20546;-78
2022/07/21 11:40:44;;;;;;;16.07;14.57;;;27.70;98.00;;;;;;5043037;28;20493;-76
2022/07/21 11:43:11;;;;;;;17.13;15.60;;;28.10;96.40;;;;;;5050632;28;20557;-77
2022/07/21 11:45:39;;;;;;;14.97;13.47;;;27.60;96.60;;;;;;5057161;28;20442;-76
2022/07/21 11:48:06;;;;;;;15.20;13.90;;;27.20;97.00;;;;;;5042734;28;20486;-77
2022/07/21 11:50:33;;;;;;;16.50;13.70;;;27.50;97.30;;;;;;5050397;28;20861;-77
2022/07/21 11:53:02;;;;;;;14.63;13.13;;;27.50;97.00;;;;;;5041745;28;20471;-77
2022/07/21 11:55:30;;;;;;;14.90;13.57;;;27.70;97.40;;;;;;5041648;28;21100;-78
2022/07/21 11:57:56;;;;;;;19.60;15.83;;;27.80;96.90;;;;;;5038456;28;20462;-76
2022/07/21 12:00:26;;;;;;;18.60;16.73;;;27.70;96.90;;;;;;5052195;28;20478;-78
2022/07/21 12:03:06;;;;;;;23.63;16.67;;;27.60;97.70;;;;;;5045924;28;20473;-78
2022/07/21 12:05:33;;;;;;;14.10;12.70;;;27.80;97.10;;;;;;5048219;28;20461;-78
2022/07/21 12:08:02;;;;;;;13.90;12.70;;;27.60;96.30;;;;;;5038870;28;20906;-77
2022/07/21 12:10:30;;;;;;;15.30;13.70;;;27.70;95.20;;;;;;5050168;28;20886;-76
2022/07/21 12:13:00;;;;;;;15.50;13.70;;;27.70;95.10;;;;;;5046557;28;20547;-77
2022/07/21 12:15:31;;;;;;;18.00;16.10;;;27.60;95.80;;;;;;5050942;28;20834;-75
2022/07/21 12:18:01;;;;;;;18.20;16.43;;;27.10;97.10;;;;;;5046733;28;20789;-77
2022/07/21 12:20:30;;;;;;;15.70;14.10;;;26.90;97.70;;;;;;5049766;28;20454;-77
2022/07/21 12:22:59;;;;;;;17.20;15.30;;;27.00;98.00;;;;;;5049674;28;20479;-76
2022/07/21 12:25:34;;;;;;;16.17;14.67;;;26.90;98.40;;;;;;5046797;28;20505;-77
2022/07/21 12:28:02;;;;;;;20.50;14.80;;;26.90;99.40;;;;;;5055473;28;20456;-77
2022/07/21 12:30:38;;;;;;;18.20;16.27;;;27.10;99.10;;;;;;5050377;28;20447;-75
2022/07/21 12:33:09;;;;;;;17.27;15.57;;;27.10;99.20;;;;;;5034013;28;20828;-76
2022/07/21 12:35:39;;;;;;;17.97;16.27;;;27.10;98.60;;;;;;5048997;28;20482;-77
2022/07/21 12:38:11;;;;;;;18.57;16.77;;;27.30;98.50;;;;;;5049949;28;20446;-75
2022/07/21 12:40:41;;;;;;;17.53;15.83;;;27.00;98.50;;;;;;5047958;28;20438;-76
2022/07/21 12:43:11;;;;;;;18.60;15.27;;;27.10;98.80;;;;;;5052416;28;20527;-77
2022/07/21 12:45:53;;;;;;;17.90;16.20;;;27.00;98.30;;;;;;5043720;28;20463;-77
2022/07/21 12:48:24;;;;;;;18.30;16.50;;;27.20;97.70;;;;;;5050909;28;20452;-78
2022/07/21 12:51:00;;;;;;;19.23;15.20;;;27.20;97.80;;;;;;5047870;28;20929;-78